Time;durP1;ratioP1;P1;durP2;ratioP2;P2;SDS_P1;SDS_P2;PMS_P1;PMS_P2;Temp;Humidity;BMP_temperature;BMP_pressure;BME280_temperature;BME280_humidity;BME280_pressure;Samples;Min_cycle;Max_cycle;Signal;HPM_P1;HPM_P2
2021/04/28 00:00:34;;;;;;;11.67;8.10;;;6.50;99.90;;;;;;5050661;28;20680;-66
2021/04/28 00:03:05;;;;;;;12.13;7.23;;;6.50;99.90;;;;;;5050862;28;20181;-66
2021/04/28 00:05:31;;;;;;;9.10;6.23;;;6.40;99.90;;;;;;5051238;28;20537;-65
2021/04/28 00:07:57;;;;;;;8.10;5.90;;;6.30;99.90;;;;;;5050763;28;20206;-66
2021/04/28 00:10:27;;;;;;;9.10;6.10;;;6.30;99.90;;;;;;5049245;28;20205;-66
2021/04/28 00:12:53;;;;;;;7.27;5.43;;;6.20;99.90;;;;;;5050764;28;20236;-65
2021/04/28 00:15:25;;;;;;;6.23;5.63;;;6.20;99.90;;;;;;5050303;28;20167;-66
2021/04/28 00:17:51;;;;;;;7.50;5.77;;;6.10;99.90;;;;;;5050649;28;20278;-65
2021/04/28 00:20:17;;;;;;;6.93;6.23;;;6.00;99.90;;;;;;5050397;28;20214;-66
2021/04/28 00:22:43;;;;;;;6.37;5.60;;;6.10;99.90;;;;;;5050854;28;20175;-66
2021/04/28 00:25:13;;;;;;;8.77;6.10;;;6.00;99.90;;;;;;5050739;28;20175;-65
2021/04/28 00:27:39;;;;;;;10.20;5.30;;;5.90;99.90;;;;;;5050857;28;20209;-65
2021/04/28 00:30:07;;;;;;;7.87;5.87;;;6.00;99.90;;;;;;5050327;28;20305;-66
2021/04/28 00:32:37;;;;;;;6.03;5.43;;;5.90;99.90;;;;;;5052740;28;20170;-66
2021/04/28 00:35:09;;;;;;;7.40;5.27;;;6.00;99.90;;;;;;5054468;28;20181;-66
2021/04/28 00:37:35;;;;;;;10.57;6.60;;;5.90;99.90;;;;;;5054091;28;20458;-65
2021/04/28 00:40:01;;;;;;;7.33;6.37;;;5.90;99.90;;;;;;5053969;28;20612;-65
2021/04/28 00:42:26;;;;;;;6.53;5.83;;;5.80;99.90;;;;;;5053770;28;20179;-66
2021/04/28 00:44:52;;;;;;;7.13;6.10;;;5.70;99.90;;;;;;5053122;28;20527;-64
2021/04/28 00:47:18;;;;;;;12.07;6.83;;;5.70;99.90;;;;;;5054170;28;20738;-66
2021/04/28 00:49:44;;;;;;;6.97;5.80;;;5.70;99.90;;;;;;5053826;28;20202;-66
2021/04/28 00:52:10;;;;;;;11.87;6.13;;;5.70;99.90;;;;;;5054146;28;20229;-66
2021/04/28 00:54:36;;;;;;;10.03;6.37;;;5.70;99.90;;;;;;5053621;28;20218;-66
2021/04/28 00:57:04;;;;;;;10.20;6.13;;;5.70;99.90;;;;;;5053916;28;20179;-64
2021/04/28 00:59:30;;;;;;;9.13;5.67;;;5.70;99.90;;;;;;5053520;28;20226;-66
2021/04/28 01:01:56;;;;;;;11.27;5.60;;;5.70;99.90;;;;;;5053827;28;20266;-66
2021/04/28 01:04:22;;;;;;;9.03;6.17;;;5.70;99.90;;;;;;5053593;28;20269;-64
2021/04/28 01:06:49;;;;;;;8.13;5.80;;;5.70;99.90;;;;;;5053541;28;20190;-66
2021/04/28 01:09:15;;;;;;;8.50;5.40;;;5.70;99.90;;;;;;5053412;28;20210;-65
2021/04/28 01:11:42;;;;;;;6.53;5.70;;;5.60;99.90;;;;;;5053446;28;20178;-65
2021/04/28 01:14:08;;;;;;;7.73;5.90;;;5.60;99.90;;;;;;5051660;28;20316;-64
2021/04/28 01:16:35;;;;;;;8.17;6.03;;;5.60;99.90;;;;;;5053529;28;20175;-66
2021/04/28 01:19:01;;;;;;;8.10;6.23;;;5.60;99.90;;;;;;5053287;28;20260;-65
2021/04/28 01:21:27;;;;;;;8.77;6.53;;;5.50;99.90;;;;;;5053131;28;20183;-65
2021/04/28 01:23:53;;;;;;;10.10;6.20;;;5.50;99.90;;;;;;5053200;28;20185;-65
2021/04/28 01:26:25;;;;;;;14.20;6.60;;;5.50;99.90;;;;;;5053345;28;20170;-64
2021/04/28 01:28:51;;;;;;;8.80;6.13;;;5.40;99.90;;;;;;5052890;28;20289;-65
2021/04/28 01:31:17;;;;;;;7.07;5.87;;;5.40;99.90;;;;;;5051553;28;20220;-65
2021/04/28 01:33:47;;;;;;;6.63;5.83;;;5.40;99.90;;;;;;5052880;28;20535;-66
2021/04/28 01:36:24;;;;;;;9.87;6.23;;;5.30;99.90;;;;;;5053356;28;20583;-66
2021/04/28 01:38:52;;;;;;;7.63;5.47;;;5.30;99.90;;;;;;5053022;28;20644;-66
2021/04/28 01:41:19;;;;;;;8.13;5.80;;;5.20;99.90;;;;;;5052922;28;20179;-66
2021/04/28 01:43:46;;;;;;;7.33;5.80;;;5.20;99.90;;;;;;5051975;28;20193;-66
2021/04/28 01:46:13;;;;;;;8.63;5.47;;;5.20;99.90;;;;;;5053294;28;20274;-66
2021/04/28 01:48:40;;;;;;;8.13;5.63;;;5.20;99.90;;;;;;5052648;28;20213;-66
2021/04/28 01:51:05;;;;;;;17.30;6.00;;;5.20;99.90;;;;;;5052383;28;20260;-66
2021/04/28 01:53:32;;;;;;;5.27;4.70;;;5.20;99.90;;;;;;5053090;28;20175;-66
2021/04/28 01:55:59;;;;;;;8.27;5.57;;;5.20;99.90;;;;;;5052630;28;20221;-66
2021/04/28 01:58:27;;;;;;;6.50;5.90;;;5.20;99.90;;;;;;5052813;28;20170;-66
2021/04/28 02:00:53;;;;;;;9.10;5.37;;;5.10;99.90;;;;;;5051738;28;20206;-66
2021/04/28 02:03:26;;;;;;;6.97;5.30;;;5.10;99.90;;;;;;5052540;28;20194;-67
2021/04/28 02:05:53;;;;;;;8.03;5.87;;;5.10;99.90;;;;;;5052335;28;20209;-67
2021/04/28 02:08:19;;;;;;;9.80;7.57;;;5.00;99.90;;;;;;5052688;28;20214;-66
2021/04/28 02:10:45;;;;;;;8.10;6.13;;;5.00;99.90;;;;;;5051960;28;20593;-67
2021/04/28 02:13:16;;;;;;;11.83;6.23;;;5.00;99.90;;;;;;5052959;28;20258;-66
2021/04/28 02:15:43;;;;;;;7.17;5.87;;;5.00;99.90;;;;;;5052481;28;20206;-65
2021/04/28 02:18:09;;;;;;;9.77;6.67;;;4.90;99.90;;;;;;5052628;28;20186;-66
2021/04/28 02:20:37;;;;;;;9.40;6.10;;;5.00;99.90;;;;;;5051629;28;20202;-67
2021/04/28 02:23:05;;;;;;;7.57;6.30;;;4.90;99.90;;;;;;5052437;28;20232;-66
2021/04/28 02:25:31;;;;;;;9.90;6.77;;;4.80;99.90;;;;;;5052158;28;20189;-66
2021/04/28 02:27:56;;;;;;;15.13;6.07;;;4.80;99.90;;;;;;5052320;28;20198;-66
2021/04/28 02:30:24;;;;;;;6.53;5.30;;;4.70;99.90;;;;;;5051754;28;20218;-66
2021/04/28 02:32:51;;;;;;;7.50;6.33;;;4.70;99.90;;;;;;5052140;28;20198;-65
2021/04/28 02:35:19;;;;;;;7.77;6.33;;;4.60;99.90;;;;;;5051524;28;20189;-65
2021/04/28 02:37:47;;;;;;;8.33;5.97;;;4.60;99.90;;;;;;5051791;28;20179;-67
2021/04/28 02:40:15;;;;;;;8.53;6.20;;;4.50;99.90;;;;;;5051671;28;20226;-66
2021/04/28 02:42:46;;;;;;;8.47;6.23;;;4.50;99.90;;;;;;5051835;28;20175;-66
2021/04/28 02:45:15;;;;;;;7.37;5.87;;;4.50;99.90;;;;;;5051653;28;20193;-66
2021/04/28 02:47:41;;;;;;;9.20;6.33;;;4.40;99.90;;;;;;5051560;28;20245;-66
2021/04/28 02:50:09;;;;;;;6.63;5.93;;;4.30;99.90;;;;;;5051443;28;20781;-66
2021/04/28 02:52:35;;;;;;;10.70;7.07;;;4.20;99.90;;;;;;5050320;28;20171;-65
2021/04/28 02:55:02;;;;;;;9.37;6.37;;;4.20;99.90;;;;;;5051318;28;20205;-66
2021/04/28 02:57:28;;;;;;;12.30;6.37;;;4.20;99.90;;;;;;5051918;28;20578;-66
2021/04/28 02:59:55;;;;;;;7.40;6.50;;;4.20;99.90;;;;;;5049640;28;20352;-67
2021/04/28 03:02:21;;;;;;;8.97;6.17;;;4.20;99.90;;;;;;5033590;28;20313;-67
2021/04/28 03:04:48;;;;;;;10.33;6.30;;;4.20;99.90;;;;;;5040887;28;20194;-65
2021/04/28 03:07:15;;;;;;;10.23;6.97;;;4.20;99.90;;;;;;5051749;28;20206;-67
2021/04/28 03:09:42;;;;;;;9.53;7.10;;;4.10;99.90;;;;;;5049950;28;20202;-64
2021/04/28 03:12:12;;;;;;;10.27;6.67;;;4.10;99.90;;;;;;5051334;28;20261;-66
2021/04/28 03:14:37;;;;;;;8.40;5.67;;;4.10;99.90;;;;;;5050369;28;20182;-65
2021/04/28 03:17:03;;;;;;;14.33;7.10;;;4.10;99.90;;;;;;5051568;28;20237;-67
2021/04/28 03:19:29;;;;;;;8.20;6.73;;;4.20;99.90;;;;;;5051166;28;20202;-66
2021/04/28 03:21:55;;;;;;;14.00;6.40;;;4.20;99.90;;;;;;5051280;28;20185;-67
2021/04/28 03:24:22;;;;;;;9.13;6.03;;;4.20;99.90;;;;;;5051544;28;20179;-66
2021/04/28 03:26:51;;;;;;;9.00;6.93;;;4.30;99.90;;;;;;5051450;28;20203;-65
2021/04/28 03:29:17;;;;;;;7.03;6.10;;;4.30;99.90;;;;;;5051568;28;20679;-66
2021/04/28 03:31:44;;;;;;;12.10;6.17;;;4.30;99.90;;;;;;5050171;28;20171;-66
2021/04/28 03:34:09;;;;;;;8.57;6.87;;;4.40;99.90;;;;;;5051164;28;20586;-66
2021/04/28 03:36:35;;;;;;;9.37;6.43;;;4.40;99.90;;;;;;5051253;28;20179;-66
2021/04/28 03:39:01;;;;;;;7.90;6.37;;;4.40;99.90;;;;;;5051216;28;20178;-66
2021/04/28 03:41:28;;;;;;;7.90;6.27;;;4.30;99.90;;;;;;5050805;28;20174;-66
2021/04/28 03:43:54;;;;;;;7.93;6.53;;;4.20;99.90;;;;;;5051257;28;20640;-66
2021/04/28 03:46:20;;;;;;;13.10;7.23;;;4.20;99.90;;;;;;5049283;28;20178;-67
2021/04/28 03:48:46;;;;;;;7.00;6.30;;;4.20;99.90;;;;;;5049463;28;20186;-67
2021/04/28 03:51:12;;;;;;;9.90;6.50;;;4.20;99.90;;;;;;5050895;28;20277;-65
2021/04/28 03:53:38;;;;;;;8.50;6.43;;;4.10;99.90;;;;;;5050892;28;20257;-66
2021/04/28 03:56:04;;;;;;;9.50;6.80;;;4.00;99.90;;;;;;5051212;28;20178;-66
2021/04/28 03:58:29;;;;;;;9.57;6.30;;;4.00;99.90;;;;;;5050890;28;20179;-66
2021/04/28 04:00:55;;;;;;;8.53;6.50;;;4.00;99.90;;;;;;5050525;28;20194;-66
2021/04/28 04:03:21;;;;;;;11.40;7.10;;;4.10;99.90;;;;;;5050818;28;20691;-66
2021/04/28 04:05:46;;;;;;;7.63;6.40;;;4.20;99.90;;;;;;5051267;28;20183;-65
2021/04/28 04:08:12;;;;;;;7.50;6.70;;;4.10;99.90;;;;;;5054383;28;20198;-67
2021/04/28 04:10:37;;;;;;;9.73;6.67;;;4.10;99.90;;;;;;5054589;28;20202;-66
2021/04/28 04:13:03;;;;;;;11.70;7.60;;;4.10;99.90;;;;;;5053184;28;20166;-66
2021/04/28 04:15:29;;;;;;;10.03;7.23;;;4.10;99.90;;;;;;5054918;28;20166;-65
2021/04/28 04:17:54;;;;;;;9.40;6.83;;;4.10;99.90;;;;;;5053216;28;20175;-66
2021/04/28 04:20:20;;;;;;;10.47;7.57;;;4.10;99.90;;;;;;5054481;28;20210;-66
2021/04/28 04:22:46;;;;;;;9.03;7.50;;;4.10;99.90;;;;;;5054538;28;20176;-66
2021/04/28 04:25:11;;;;;;;12.03;7.43;;;4.10;99.90;;;;;;5054572;28;20204;-65
2021/04/28 04:27:37;;;;;;;13.33;7.73;;;4.10;99.90;;;;;;5054534;28;20206;-65
2021/04/28 04:30:08;;;;;;;7.47;6.30;;;4.10;99.90;;;;;;5053913;28;20718;-66
2021/04/28 04:32:34;;;;;;;8.07;7.27;;;4.10;99.90;;;;;;5053976;28;20174;-66
2021/04/28 04:34:59;;;;;;;11.80;7.97;;;4.10;99.90;;;;;;5054390;28;20178;-66
2021/04/28 04:37:25;;;;;;;10.60;7.90;;;4.20;99.90;;;;;;5054560;28;20178;-66
2021/04/28 04:39:51;;;;;;;9.10;7.47;;;4.20;99.90;;;;;;5053902;28;20213;-65
2021/04/28 04:42:16;;;;;;;9.73;7.50;;;4.20;99.90;;;;;;5054278;28;20182;-66
2021/04/28 04:44:42;;;;;;;10.27;7.80;;;4.30;99.90;;;;;;5054124;28;20183;-65
2021/04/28 04:47:07;;;;;;;16.27;8.10;;;4.40;99.90;;;;;;5054130;28;20206;-66
2021/04/28 04:49:34;;;;;;;10.37;7.47;;;4.60;99.90;;;;;;5052894;28;20638;-65
2021/04/28 04:52:00;;;;;;;9.33;7.13;;;4.70;99.90;;;;;;5053817;28;20174;-65
2021/04/28 04:54:25;;;;;;;7.60;6.43;;;4.90;99.90;;;;;;5054285;28;20167;-65
2021/04/28 04:56:54;;;;;;;9.13;6.47;;;5.00;99.90;;;;;;5053794;28;20189;-66
2021/04/28 04:59:20;;;;;;;12.13;6.93;;;5.10;99.90;;;;;;5054350;28;20194;-65
2021/04/28 05:01:45;;;;;;;12.03;7.33;;;5.20;99.90;;;;;;5053792;28;20632;-65
2021/04/28 05:04:11;;;;;;;8.43;7.20;;;5.40;99.90;;;;;;5052747;28;20213;-65
2021/04/28 05:06:37;;;;;;;13.27;7.73;;;5.60;99.90;;;;;;5053700;28;20183;-66
2021/04/28 05:09:03;;;;;;;16.10;9.77;;;5.70;99.90;;;;;;5053633;28;20182;-65
2021/04/28 05:11:29;;;;;;;9.77;7.70;;;5.80;99.90;;;;;;5033641;28;20167;-66
2021/04/28 05:13:55;;;;;;;17.60;8.23;;;5.80;99.90;;;;;;5033825;28;20190;-65
2021/04/28 05:16:20;;;;;;;10.40;7.77;;;6.00;99.90;;;;;;5052374;28;20178;-65
2021/04/28 05:18:46;;;;;;;9.37;7.23;;;6.00;99.90;;;;;;5052220;28;20181;-66
2021/04/28 05:21:11;;;;;;;11.30;7.57;;;6.10;99.90;;;;;;5053044;28;20203;-67
2021/04/28 05:23:37;;;;;;;9.10;7.53;;;6.20;99.90;;;;;;5053439;28;20185;-65
2021/04/28 05:26:03;;;;;;;8.27;7.40;;;6.30;99.90;;;;;;5043384;28;20548;-66
2021/04/28 05:28:28;;;;;;;9.60;7.13;;;6.30;99.90;;;;;;5046992;28;20199;-67
2021/04/28 05:30:54;;;;;;;11.63;7.03;;;6.40;99.90;;;;;;5052719;28;20645;-67
2021/04/28 05:33:19;;;;;;;7.83;6.53;;;6.50;99.90;;;;;;5053099;28;20179;-66
2021/04/28 05:35:45;;;;;;;11.70;7.23;;;6.50;99.90;;;;;;5052454;28;20557;-66
2021/04/28 05:38:11;;;;;;;12.37;6.37;;;6.60;99.90;;;;;;5052963;28;20220;-66
2021/04/28 05:40:36;;;;;;;19.03;6.87;;;6.60;99.90;;;;;;5052817;28;20445;-66
2021/04/28 05:43:02;;;;;;;11.33;6.80;;;6.70;99.90;;;;;;5052969;28;20182;-67
2021/04/28 05:45:28;;;;;;;11.17;7.40;;;6.80;99.90;;;;;;5052700;28;20178;-66
2021/04/28 05:47:53;;;;;;;9.80;7.20;;;7.10;99.90;;;;;;5052238;28;20217;-66
2021/04/28 05:50:19;;;;;;;11.13;6.93;;;7.40;99.90;;;;;;5052703;28;20187;-64
2021/04/28 05:52:46;;;;;;;7.40;6.57;;;7.80;99.90;;;;;;5051788;28;20186;-65
2021/04/28 05:55:12;;;;;;;9.57;6.13;;;8.30;99.90;;;;;;5052955;28;20178;-65
2021/04/28 05:57:39;;;;;;;8.87;6.00;;;8.70;99.90;;;;;;5052766;28;20179;-65
2021/04/28 06:00:08;;;;;;;9.23;5.80;;;9.30;99.90;;;;;;5052620;28;20277;-64
2021/04/28 06:02:34;;;;;;;10.10;5.67;;;9.80;99.90;;;;;;5052387;28;20547;-63
2021/04/28 06:05:00;;;;;;;9.97;6.50;;;10.30;99.90;;;;;;5052906;28;20186;-65
2021/04/28 06:07:25;;;;;;;16.80;7.37;;;10.60;99.90;;;;;;5052083;28;20317;-64
2021/04/28 06:09:51;;;;;;;10.13;6.50;;;11.00;99.90;;;;;;5050791;28;20193;-65
2021/04/28 06:12:17;;;;;;;10.53;6.13;;;11.40;99.90;;;;;;5051991;28;20174;-65
2021/04/28 06:14:42;;;;;;;9.17;5.87;;;11.80;99.90;;;;;;5052077;28;20224;-65
2021/04/28 06:17:10;;;;;;;8.47;5.80;;;12.30;99.90;;;;;;5052551;28;20685;-66
2021/04/28 06:19:35;;;;;;;8.63;5.83;;;12.80;99.90;;;;;;5052071;28;20541;-65
2021/04/28 06:22:01;;;;;;;7.63;5.40;;;13.20;99.90;;;;;;5051920;28;20190;-65
2021/04/28 06:24:27;;;;;;;10.20;6.13;;;13.60;99.90;;;;;;5052405;28;20179;-65
2021/04/28 06:26:53;;;;;;;7.97;5.70;;;13.80;99.90;;;;;;5051981;28;20186;-64
2021/04/28 06:29:18;;;;;;;10.00;5.87;;;14.00;99.90;;;;;;5051713;28;20281;-66
2021/04/28 06:31:44;;;;;;;10.20;5.53;;;14.10;99.90;;;;;;5051660;28;20466;-65
2021/04/28 06:34:10;;;;;;;10.73;7.03;;;14.40;99.90;;;;;;5049755;28;20187;-65
2021/04/28 06:36:35;;;;;;;9.17;6.33;;;14.50;99.90;;;;;;5032217;28;20625;-65
2021/04/28 06:39:01;;;;;;;9.20;5.90;;;14.70;99.90;;;;;;5032236;28;20576;-65
2021/04/28 06:41:27;;;;;;;7.53;5.83;;;14.90;99.90;;;;;;5034862;28;20233;-64
2021/04/28 06:43:53;;;;;;;8.83;6.33;;;15.10;99.90;;;;;;5037903;28;20187;-64
2021/04/28 06:46:18;;;;;;;9.93;6.37;;;15.20;99.90;;;;;;5045182;28;20472;-64
2021/04/28 06:48:44;;;;;;;7.47;6.10;;;15.20;99.90;;;;;;5047457;28;20199;-65
2021/04/28 06:51:10;;;;;;;7.17;5.93;;;15.60;99.90;;;;;;5032949;28;20717;-64
2021/04/28 06:53:36;;;;;;;13.13;5.87;;;15.90;99.90;;;;;;5049009;28;20232;-65
2021/04/28 06:56:02;;;;;;;7.70;5.40;;;16.00;99.90;;;;;;5039151;28;20179;-65
2021/04/28 06:58:30;;;;;;;10.77;7.07;;;15.90;99.90;;;;;;5031891;28;20334;-65
2021/04/28 07:00:55;;;;;;;9.23;6.03;;;16.20;99.90;;;;;;5042005;28;20242;-64
2021/04/28 07:03:21;;;;;;;10.97;6.63;;;16.20;99.90;;;;;;5051735;28;20178;-64
2021/04/28 07:05:47;;;;;;;8.03;5.83;;;16.10;99.90;;;;;;5042224;28;20311;-65
2021/04/28 07:08:13;;;;;;;8.63;6.30;;;16.20;99.90;;;;;;5031495;28;20233;-65
2021/04/28 07:10:38;;;;;;;6.73;5.33;;;16.30;99.90;;;;;;5037745;28;20198;-65
2021/04/28 07:13:05;;;;;;;8.50;6.03;;;16.30;99.90;;;;;;5050385;28;20654;-65
2021/04/28 07:15:32;;;;;;;7.43;5.70;;;16.20;99.90;;;;;;5045398;28;20175;-64
2021/04/28 07:17:57;;;;;;;7.28;6.20;;;16.40;99.90;;;;;;5031650;28;20182;-64
2021/04/28 07:20:23;;;;;;;8.83;6.33;;;16.60;99.90;;;;;;5035356;28;20198;-64
2021/04/28 07:22:49;;;;;;;12.90;5.97;;;16.80;99.90;;;;;;5051305;28;20205;-65
2021/04/28 07:25:15;;;;;;;7.53;6.07;;;16.90;98.90;;;;;;5048696;28;20182;-65
2021/04/28 07:27:44;;;;;;;9.95;6.45;;;16.80;98.80;;;;;;5031313;28;20203;-64
2021/04/28 07:30:13;;;;;;;13.30;7.03;;;17.00;99.90;;;;;;5031854;28;20337;-65
2021/04/28 07:32:39;;;;;;;7.13;6.13;;;17.10;99.20;;;;;;5050511;28;20583;-64
2021/04/28 07:35:06;;;;;;;8.77;6.60;;;17.20;97.50;;;;;;5050733;28;20175;-65
2021/04/28 07:37:31;;;;;;;9.13;5.63;;;17.20;97.80;;;;;;5035373;28;20174;-65
2021/04/28 07:39:57;;;;;;;9.40;5.83;;;17.20;98.40;;;;;;5050803;28;20510;-64
2021/04/28 07:42:23;;;;;;;11.30;5.70;;;17.60;98.20;;;;;;5034341;28;20183;-65
2021/04/28 07:44:49;;;;;;;10.20;5.88;;;18.00;97.80;;;;;;5035190;28;20190;-65
2021/04/28 07:47:15;;;;;;;9.05;6.00;;;18.20;97.10;;;;;;5051147;28;20207;-65
2021/04/28 07:49:40;;;;;;;10.77;5.60;;;18.50;96.40;;;;;;5034583;28;20760;-65
2021/04/28 07:52:06;;;;;;;11.27;6.22;;;18.90;96.00;;;;;;5050345;28;20175;-64
2021/04/28 07:54:32;;;;;;;12.00;6.53;;;19.10;95.10;;;;;;5055391;28;20597;-65
2021/04/28 07:56:59;;;;;;;13.80;6.30;;;19.40;96.20;;;;;;5040377;28;20625;-65
2021/04/28 07:59:25;;;;;;;8.80;6.30;;;19.70;95.30;;;;;;5035183;28;20675;-64
2021/04/28 08:01:51;;;;;;;9.93;6.28;;;19.90;93.00;;;;;;5037231;28;20191;-65
2021/04/28 08:04:20;;;;;;;22.35;6.72;;;20.10;93.40;;;;;;5035112;28;20203;-65
2021/04/28 08:06:46;;;;;;;8.93;5.75;;;20.50;92.90;;;;;;5045272;28;20183;-65
2021/04/28 08:09:11;;;;;;;10.63;6.05;;;20.70;90.70;;;;;;5054683;28;20522;-65
2021/04/28 08:11:37;;;;;;;8.70;5.82;;;20.80;90.00;;;;;;5045423;28;20230;-65
2021/04/28 08:14:03;;;;;;;9.40;6.35;;;20.70;90.20;;;;;;5034820;28;20699;-65
2021/04/28 08:16:31;;;;;;;11.00;5.95;;;20.50;87.50;;;;;;5041690;28;20205;-64
2021/04/28 08:18:56;;;;;;;6.68;5.60;;;20.70;88.20;;;;;;5054607;28;20244;-65
2021/04/28 08:21:22;;;;;;;8.07;6.10;;;20.60;89.80;;;;;;5048476;28;20171;-65
2021/04/28 08:23:47;;;;;;;12.25;6.18;;;20.90;90.10;;;;;;5034656;28;20180;-66
2021/04/28 08:26:14;;;;;;;9.52;5.85;;;21.00;88.60;;;;;;5038371;28;20186;-65
2021/04/28 08:28:42;;;;;;;8.60;6.20;;;20.70;85.40;;;;;;5054237;28;20217;-65
2021/04/28 08:31:09;;;;;;;9.65;6.25;;;20.60;87.20;;;;;;5051110;28;20248;-64
2021/04/28 08:33:35;;;;;;;9.35;6.43;;;20.60;89.10;;;;;;5034531;28;20179;-65
2021/04/28 08:36:01;;;;;;;8.85;6.45;;;21.00;88.10;;;;;;5035543;28;20203;-65
2021/04/28 08:38:27;;;;;;;10.88;6.10;;;21.30;83.10;;;;;;5054431;28;20186;-65
2021/04/28 08:40:52;;;;;;;10.48;7.03;;;21.10;81.90;;;;;;5053666;28;20209;-65
2021/04/28 08:43:22;;;;;;;8.27;6.82;;;21.20;82.00;;;;;;5053065;28;20182;-65
2021/04/28 08:45:48;;;;;;;10.45;6.32;;;21.20;80.50;;;;;;5054188;28;20167;-64
2021/04/28 08:48:13;;;;;;;10.32;6.25;;;21.10;83.20;;;;;;5037656;28;20210;-65
2021/04/28 08:50:39;;;;;;;10.07;6.53;;;21.30;80.30;;;;;;5053773;28;20210;-64
2021/04/28 08:53:06;;;;;;;14.70;6.70;;;21.10;80.50;;;;;;5036768;28;20186;-65
2021/04/28 08:55:32;;;;;;;10.02;6.32;;;21.40;83.60;;;;;;5034202;28;20645;-64
2021/04/28 08:57:58;;;;;;;16.52;5.93;;;21.70;83.90;;;;;;5049069;28;20190;-65
2021/04/28 09:00:24;;;;;;;10.82;6.25;;;22.00;83.50;;;;;;5053811;28;20206;-64
2021/04/28 09:02:54;;;;;;;8.02;5.97;;;22.30;81.40;;;;;;5040130;28;20206;-64
2021/04/28 09:05:20;;;;;;;9.35;6.50;;;22.80;82.50;;;;;;5034186;28;20562;-64
2021/04/28 09:07:46;;;;;;;9.82;6.28;;;23.10;80.80;;;;;;5046165;28;20297;-64
2021/04/28 09:10:22;;;;;;;8.55;5.97;;;23.30;80.20;;;;;;5054222;28;20189;-65
2021/04/28 09:12:55;;;;;;;14.20;6.75;;;23.70;81.70;;;;;;5052111;28;20174;-64
2021/04/28 09:15:43;;;;;;;9.27;6.15;;;23.90;78.70;;;;;;5053843;28;20171;-64
2021/04/28 09:18:11;;;;;;;8.35;6.25;;;23.90;73.60;;;;;;5039017;28;20218;-64
2021/04/28 09:20:47;;;;;;;10.00;6.85;;;24.00;74.70;;;;;;5032525;28;20241;-65
2021/04/28 09:23:15;;;;;;;7.60;6.13;;;24.10;75.40;;;;;;5034989;28;20183;-65
2021/04/28 09:25:51;;;;;;;9.50;6.80;;;24.50;75.20;;;;;;5033848;28;20175;-65
2021/04/28 09:28:30;;;;;;;11.20;6.70;;;24.60;74.80;;;;;;5047829;28;20267;-65
2021/04/28 09:31:16;;;;;;;11.07;6.50;;;24.90;76.00;;;;;;5052130;28;20301;-65
2021/04/28 09:33:52;;;;;;;10.00;6.25;;;25.10;71.90;;;;;;5035476;28;20233;-65
2021/04/28 09:36:26;;;;;;;6.93;6.22;;;25.30;71.60;;;;;;5033595;28;20254;-64
2021/04/28 09:38:58;;;;;;;9.07;6.75;;;25.50;73.40;;;;;;5050899;28;20179;-64
2021/04/28 09:41:44;;;;;;;9.70;6.32;;;25.70;70.70;;;;;;5052900;28;20177;-65
2021/04/28 09:44:18;;;;;;;14.05;7.47;;;25.70;67.70;;;;;;5033279;28;20175;-64
2021/04/28 09:47:05;;;;;;;7.95;6.75;;;25.70;66.40;;;;;;5033055;28;20202;-65
2021/04/28 09:49:53;;;;;;;10.20;6.80;;;25.80;68.80;;;;;;5039298;28;20277;-65
2021/04/28 09:52:41;;;;;;;9.70;6.38;;;26.00;69.20;;;;;;5049270;28;20271;-64
2021/04/28 09:55:07;;;;;;;9.68;6.53;;;26.20;67.90;;;;;;5032907;28;20243;-66
2021/04/28 09:57:54;;;;;;;13.18;7.13;;;26.20;64.90;;;;;;5037565;28;20217;-66
2021/04/28 10:00:29;;;;;;;8.30;6.50;;;26.20;63.00;;;;;;5052407;28;20229;-67
2021/04/28 10:03:04;;;;;;;7.57;6.22;;;25.90;67.20;;;;;;5045248;28;20193;-66
2021/04/28 10:05:36;;;;;;;11.18;7.10;;;25.90;64.30;;;;;;5032117;28;20652;-67
2021/04/28 10:08:21;;;;;;;8.35;6.63;;;25.80;62.40;;;;;;5036056;28;20209;-66
2021/04/28 10:10:50;;;;;;;8.73;6.93;;;25.70;61.20;;;;;;5052126;28;20197;-65
2021/04/28 10:13:16;;;;;;;8.50;6.68;;;25.80;65.70;;;;;;5043519;28;20175;-65
2021/04/28 10:15:45;;;;;;;10.13;5.88;;;26.10;62.80;;;;;;5032862;28;20235;-65
2021/04/28 10:18:14;;;;;;;9.10;6.35;;;26.70;59.70;;;;;;5039640;28;20232;-65
2021/04/28 10:20:42;;;;;;;9.57;6.07;;;27.20;61.30;;;;;;5049322;28;20199;-64
2021/04/28 10:23:09;;;;;;;9.15;6.53;;;27.60;58.70;;;;;;5032313;28;20701;-65
2021/04/28 10:25:36;;;;;;;7.40;6.13;;;27.50;57.10;;;;;;5033585;28;20590;-65
2021/04/28 10:28:05;;;;;;;10.80;6.38;;;27.30;56.30;;;;;;5052589;28;20205;-64
2021/04/28 10:30:34;;;;;;;8.75;6.38;;;27.00;55.50;;;;;;5051477;28;20257;-65
2021/04/28 10:33:02;;;;;;;8.45;6.60;;;26.60;54.40;;;;;;5032125;28;20183;-65
2021/04/28 10:35:29;;;;;;;9.65;7.07;;;26.40;50.70;;;;;;5032149;28;20171;-65
2021/04/28 10:37:56;;;;;;;9.85;6.78;;;26.50;54.50;;;;;;5051136;28;20563;-64
2021/04/28 10:40:24;;;;;;;9.23;5.75;;;26.90;53.50;;;;;;5051708;28;20218;-65
2021/04/28 10:42:50;;;;;;;7.03;5.72;;;27.00;56.90;;;;;;5033874;28;20187;-65
2021/04/28 10:45:18;;;;;;;10.13;6.65;;;27.40;53.60;;;;;;5032034;28;20237;-65
2021/04/28 10:47:48;;;;;;;12.48;6.70;;;27.50;53.00;;;;;;5048028;28;20190;-65
2021/04/28 10:50:35;;;;;;;10.93;7.05;;;27.30;52.20;;;;;;5051363;28;20573;-65
2021/04/28 10:53:24;;;;;;;10.60;6.47;;;27.10;52.70;;;;;;5035376;28;20203;-65
2021/04/28 10:55:50;;;;;;;8.73;6.93;;;26.70;49.60;;;;;;5051846;28;20672;-64
2021/04/28 10:58:29;;;;;;;12.25;7.55;;;26.30;49.50;;;;;;5032495;28;20262;-63
2021/04/28 11:01:06;;;;;;;10.82;7.13;;;25.90;51.10;;;;;;5031019;28;20206;-64
2021/04/28 11:03:38;;;;;;;10.13;6.88;;;26.00;51.50;;;;;;5031659;28;20176;-65
2021/04/28 11:06:22;;;;;;;8.40;6.93;;;26.50;52.10;;;;;;5031874;28;20660;-64
2021/04/28 11:09:04;;;;;;;8.32;6.57;;;26.80;50.50;;;;;;5031421;28;20206;-65
2021/04/28 11:11:33;;;;;;;7.57;5.75;;;26.90;50.30;;;;;;5034016;28;20172;-65
2021/04/28 11:14:29;;;;;;;10.68;6.18;;;26.70;51.50;;;;;;5051508;28;20189;-65
2021/04/28 11:16:56;;;;;;;10.75;7.07;;;26.50;50.70;;;;;;5044646;28;20190;-64
2021/04/28 11:19:37;;;;;;;10.52;7.30;;;26.60;52.10;;;;;;5031511;28;20203;-64
2021/04/28 11:22:23;;;;;;;9.18;7.00;;;26.80;49.70;;;;;;5036959;28;20170;-65
2021/04/28 11:24:55;;;;;;;10.43;7.18;;;26.50;49.30;;;;;;5051164;28;20175;-65
2021/04/28 11:27:45;;;;;;;8.98;7.47;;;26.40;48.80;;;;;;5043528;28;20268;-65
2021/04/28 11:30:35;;;;;;;8.93;6.85;;;26.30;51.20;;;;;;5031253;28;20203;-65
2021/04/28 11:33:20;;;;;;;9.55;6.90;;;26.40;50.70;;;;;;5043503;28;20535;-64
2021/04/28 11:35:54;;;;;;;10.38;7.35;;;26.80;49.80;;;;;;5051233;28;20556;-64
2021/04/28 11:38:27;;;;;;;9.05;6.60;;;26.90;49.00;;;;;;5036614;28;20198;-65
2021/04/28 11:41:17;;;;;;;9.88;7.15;;;27.50;49.20;;;;;;5030818;28;20758;-65
2021/04/28 11:43:52;;;;;;;9.40;6.93;;;27.60;47.90;;;;;;5047981;28;20183;-65
2021/04/28 11:46:32;;;;;;;7.65;6.85;;;28.00;49.20;;;;;;5050827;28;20766;-65
2021/04/28 11:49:01;;;;;;;9.77;7.15;;;28.20;47.10;;;;;;5032156;28;20218;-66
2021/04/28 11:51:28;;;;;;;8.52;6.18;;;28.30;47.30;;;;;;5031026;28;20544;-65
2021/04/28 11:54:00;;;;;;;7.75;6.95;;;28.10;47.00;;;;;;5046576;28;20175;-64
2021/04/28 11:56:39;;;;;;;9.73;6.97;;;28.00;47.00;;;;;;5031346;28;20166;-65
2021/04/28 11:59:26;;;;;;;13.15;7.90;;;28.00;49.60;;;;;;5048772;28;20269;-65
2021/04/28 12:02:03;;;;;;;8.10;7.10;;;27.80;47.90;;;;;;5049963;28;20224;-65
2021/04/28 12:04:35;;;;;;;10.60;7.50;;;27.70;46.80;;;;;;5030779;28;20649;-65
2021/04/28 12:07:05;;;;;;;9.00;6.90;;;27.20;47.80;;;;;;5030692;28;20207;-65
2021/04/28 12:09:38;;;;;;;8.32;7.10;;;27.10;49.60;;;;;;5050177;28;20260;-65
2021/04/28 12:12:09;;;;;;;8.88;7.10;;;27.30;45.70;;;;;;5048689;28;20560;-65
2021/04/28 12:14:38;;;;;;;9.18;6.82;;;26.70;47.40;;;;;;5051094;28;20163;-65
2021/04/28 12:17:04;;;;;;;7.35;6.65;;;26.40;46.70;;;;;;5030350;28;20179;-65
2021/04/28 12:19:30;;;;;;;10.60;7.57;;;26.40;48.00;;;;;;5030374;28;20456;-65
2021/04/28 12:22:02;;;;;;;11.25;7.38;;;26.60;47.30;;;;;;5046228;28;20210;-65
2021/04/28 12:24:37;;;;;;;8.88;6.85;;;26.90;47.30;;;;;;5031072;28;20174;-65
2021/04/28 12:27:16;;;;;;;12.30;6.97;;;27.20;46.80;;;;;;5048607;28;20210;-65
2021/04/28 12:30:04;;;;;;;8.68;7.57;;;27.30;46.90;;;;;;5054231;28;20206;-65
2021/04/28 12:32:34;;;;;;;10.05;6.25;;;27.40;43.80;;;;;;5034133;28;20675;-65
2021/04/28 12:35:10;;;;;;;10.75;6.95;;;27.70;47.40;;;;;;5034679;28;20253;-65
2021/04/28 12:37:36;;;;;;;9.73;8.27;;;27.70;45.10;;;;;;5054072;28;20439;-65
2021/04/28 12:40:05;;;;;;;10.32;7.50;;;27.90;46.20;;;;;;5054036;28;20190;-65
2021/04/28 12:42:33;;;;;;;7.35;6.53;;;28.50;47.30;;;;;;5034380;28;20182;-65
2021/04/28 12:45:03;;;;;;;8.07;6.60;;;28.70;44.70;;;;;;5038039;28;20183;-65
2021/04/28 12:47:31;;;;;;;10.32;6.93;;;28.80;44.50;;;;;;5051073;28;20230;-65
2021/04/28 12:50:08;;;;;;;7.07;6.32;;;28.60;43.60;;;;;;5034957;28;20195;-65
2021/04/28 12:52:36;;;;;;;10.80;7.60;;;28.50;44.40;;;;;;5045875;28;20248;-66
2021/04/28 12:55:24;;;;;;;7.43;6.72;;;28.70;47.20;;;;;;5053794;28;20550;-66